sensor_id;sensor_type;location;lat;lon;timestamp;pressure;altitude;pressure_sealevel;temperature;humidity
80186;BME280;69904;52.122;5.422;2024-03-25T00:02:09;100795.00;;;5.03;88.45
80186;BME280;69904;52.122;5.422;2024-03-25T00:04:35;100801.34;;;5.02;88.41
80186;BME280;69904;52.122;5.422;2024-03-25T00:07:01;100804.84;;;5.03;88.67
80186;BME280;69904;52.122;5.422;2024-03-25T00:09:27;100796.16;;;5.01;88.57
80186;BME280;69904;52.122;5.422;2024-03-25T00:11:53;100795.63;;;4.97;88.45
80186;BME280;69904;52.122;5.422;2024-03-25T00:14:20;100793.81;;;4.98;88.40
80186;BME280;69904;52.122;5.422;2024-03-25T00:16:46;100798.00;;;5.00;88.65
80186;BME280;69904;52.122;5.422;2024-03-25T00:19:12;100807.38;;;5.04;88.25
80186;BME280;69904;52.122;5.422;2024-03-25T00:21:37;100799.34;;;5.04;88.49
80186;BME280;69904;52.122;5.422;2024-03-25T00:24:03;100805.53;;;5.05;88.33
80186;BME280;69904;52.122;5.422;2024-03-25T00:26:29;100797.66;;;5.03;88.44
80186;BME280;69904;52.122;5.422;2024-03-25T00:28:54;100791.97;;;4.98;88.45
80186;BME280;69904;52.122;5.422;2024-03-25T00:31:20;100790.13;;;4.99;88.65
80186;BME280;69904;52.122;5.422;2024-03-25T00:33:45;100788.63;;;4.96;88.54
80186;BME280;69904;52.122;5.422;2024-03-25T00:36:11;100780.78;;;4.95;88.59
80186;BME280;69904;52.122;5.422;2024-03-25T00:38:37;100783.59;;;4.93;88.64
80186;BME280;69904;52.122;5.422;2024-03-25T00:41:03;100781.25;;;4.90;88.36
80186;BME280;69904;52.122;5.422;2024-03-25T00:43:29;100783.09;;;4.90;88.72
80186;BME280;69904;52.122;5.422;2024-03-25T00:45:54;100784.25;;;4.87;88.49
80186;BME280;69904;52.122;5.422;2024-03-25T00:48:20;100784.44;;;4.86;88.29
80186;BME280;69904;52.122;5.422;2024-03-25T00:50:45;100783.59;;;4.85;88.47
80186;BME280;69904;52.122;5.422;2024-03-25T00:53:11;100776.88;;;4.81;88.35
80186;BME280;69904;52.122;5.422;2024-03-25T00:55:37;100778.88;;;4.79;88.67
80186;BME280;69904;52.122;5.422;2024-03-25T00:58:03;100775.53;;;4.77;88.40
80186;BME280;69904;52.122;5.422;2024-03-25T01:00:29;100786.72;;;4.73;88.21
80186;BME280;69904;52.122;5.422;2024-03-25T01:02:54;100788.53;;;4.72;88.47
80186;BME280;69904;52.122;5.422;2024-03-25T01:05:20;100787.84;;;4.70;88.38
80186;BME280;69904;52.122;5.422;2024-03-25T01:07:46;100788.34;;;4.65;88.58
80186;BME280;69904;52.122;5.422;2024-03-25T01:10:11;100791.19;;;4.64;88.41
80186;BME280;69904;52.122;5.422;2024-03-25T01:12:37;100801.34;;;4.60;88.48
80186;BME280;69904;52.122;5.422;2024-03-25T01:15:02;100792.13;;;4.55;88.69
80186;BME280;69904;52.122;5.422;2024-03-25T01:17:29;100788.94;;;4.51;88.78
80186;BME280;69904;52.122;5.422;2024-03-25T01:19:54;100793.47;;;4.51;88.97
80186;BME280;69904;52.122;5.422;2024-03-25T01:22:20;100795.44;;;4.49;88.97
80186;BME280;69904;52.122;5.422;2024-03-25T01:24:45;100795.78;;;4.46;88.95
80186;BME280;69904;52.122;5.422;2024-03-25T01:27:11;100791.41;;;4.45;88.99
80186;BME280;69904;52.122;5.422;2024-03-25T01:29:36;100792.41;;;4.44;88.70
80186;BME280;69904;52.122;5.422;2024-03-25T01:32:02;100804.78;;;4.45;88.80
80186;BME280;69904;52.122;5.422;2024-03-25T01:34:29;100789.06;;;4.42;88.97
80186;BME280;69904;52.122;5.422;2024-03-25T01:36:55;100801.59;;;4.41;89.09
80186;BME280;69904;52.122;5.422;2024-03-25T01:39:21;100800.53;;;4.34;88.97
80186;BME280;69904;52.122;5.422;2024-03-25T01:41:46;100799.66;;;4.26;89.18
80186;BME280;69904;52.122;5.422;2024-03-25T01:44:12;100805.16;;;4.24;89.15
80186;BME280;69904;52.122;5.422;2024-03-25T01:46:37;100798.84;;;4.25;89.32
80186;BME280;69904;52.122;5.422;2024-03-25T01:49:04;100802.97;;;4.19;89.63
80186;BME280;69904;52.122;5.422;2024-03-25T01:51:30;100802.91;;;4.11;89.67
80186;BME280;69904;52.122;5.422;2024-03-25T01:53:56;100799.72;;;4.08;89.65
80186;BME280;69904;52.122;5.422;2024-03-25T01:56:24;100799.06;;;4.06;89.79
80186;BME280;69904;52.122;5.422;2024-03-25T01:58:49;100797.66;;;4.02;90.08
80186;BME280;69904;52.122;5.422;2024-03-25T02:01:15;100800.19;;;4.03;90.22
80186;BME280;69904;52.122;5.422;2024-03-25T02:03:42;100801.88;;;4.04;90.19
80186;BME280;69904;52.122;5.422;2024-03-25T02:06:15;100796.69;;;4.03;90.45
80186;BME280;69904;52.122;5.422;2024-03-25T02:08:43;100795.19;;;4.00;90.15
80186;BME280;69904;52.122;5.422;2024-03-25T02:11:09;100803.47;;;3.97;90.41
80186;BME280;69904;52.122;5.422;2024-03-25T02:13:37;100800.53;;;4.00;90.46
80186;BME280;69904;52.122;5.422;2024-03-25T02:16:03;100805.69;;;4.02;90.61
80186;BME280;69904;52.122;5.422;2024-03-25T02:18:30;100806.50;;;4.02;90.51
80186;BME280;69904;52.122;5.422;2024-03-25T02:20:57;100804.31;;;3.98;90.61
80186;BME280;69904;52.122;5.422;2024-03-25T02:23:23;100799.44;;;3.93;90.57
80186;BME280;69904;52.122;5.422;2024-03-25T02:25:54;100804.78;;;3.93;90.93
80186;BME280;69904;52.122;5.422;2024-03-25T02:28:20;100803.63;;;3.96;90.83
80186;BME280;69904;52.122;5.422;2024-03-25T02:30:45;100804.31;;;3.98;90.95
80186;BME280;69904;52.122;5.422;2024-03-25T02:33:11;100807.84;;;3.98;90.93
80186;BME280;69904;52.122;5.422;2024-03-25T02:35:37;100806.84;;;3.99;90.92
80186;BME280;69904;52.122;5.422;2024-03-25T02:38:04;100799.97;;;3.97;91.05
80186;BME280;69904;52.122;5.422;2024-03-25T02:40:30;100805.31;;;3.97;91.01
80186;BME280;69904;52.122;5.422;2024-03-25T02:42:57;100807.69;;;4.00;91.00
80186;BME280;69904;52.122;5.422;2024-03-25T02:45:22;100801.66;;;3.98;90.75
80186;BME280;69904;52.122;5.422;2024-03-25T02:47:50;100801.78;;;3.96;90.76
80186;BME280;69904;52.122;5.422;2024-03-25T02:50:15;100806.28;;;3.96;91.01
80186;BME280;69904;52.122;5.422;2024-03-25T02:52:41;100802.81;;;3.95;90.95
80186;BME280;69904;52.122;5.422;2024-03-25T02:55:06;100796.63;;;3.95;91.05
80186;BME280;69904;52.122;5.422;2024-03-25T02:57:32;100796.47;;;3.96;90.98
80186;BME280;69904;52.122;5.422;2024-03-25T02:59:57;100796.47;;;3.96;90.97
80186;BME280;69904;52.122;5.422;2024-03-25T03:02:23;100796.47;;;3.96;91.04
80186;BME280;69904;52.122;5.422;2024-03-25T03:04:48;100789.28;;;3.97;91.02
80186;BME280;69904;52.122;5.422;2024-03-25T03:07:14;100787.59;;;3.96;90.91
80186;BME280;69904;52.122;5.422;2024-03-25T03:09:39;100790.28;;;3.96;90.72
80186;BME280;69904;52.122;5.422;2024-03-25T03:12:05;100791.28;;;3.95;90.69
80186;BME280;69904;52.122;5.422;2024-03-25T03:14:31;100789.47;;;3.95;90.80
80186;BME280;69904;52.122;5.422;2024-03-25T03:16:56;100785.78;;;3.96;90.76
80186;BME280;69904;52.122;5.422;2024-03-25T03:19:26;100795.63;;;3.96;90.73
80186;BME280;69904;52.122;5.422;2024-03-25T03:21:52;100791.28;;;3.95;90.52
80186;BME280;69904;52.122;5.422;2024-03-25T03:24:19;100787.94;;;3.93;90.63
80186;BME280;69904;52.122;5.422;2024-03-25T03:26:45;100793.28;;;3.93;90.62
80186;BME280;69904;52.122;5.422;2024-03-25T03:29:11;100790.75;;;3.91;90.45
80186;BME280;69904;52.122;5.422;2024-03-25T03:31:36;100781.91;;;3.91;90.60
80186;BME280;69904;52.122;5.422;2024-03-25T03:34:02;100780.41;;;3.88;90.47
80186;BME280;69904;52.122;5.422;2024-03-25T03:36:28;100782.22;;;3.88;90.48
80186;BME280;69904;52.122;5.422;2024-03-25T03:38:53;100773.53;;;3.86;90.21
80186;BME280;69904;52.122;5.422;2024-03-25T03:41:20;100781.00;;;3.82;90.15
80186;BME280;69904;52.122;5.422;2024-03-25T03:43:45;100778.66;;;3.79;90.26
80186;BME280;69904;52.122;5.422;2024-03-25T03:46:11;100780.66;;;3.77;90.07
80186;BME280;69904;52.122;5.422;2024-03-25T03:48:37;100782.63;;;3.75;90.10
80186;BME280;69904;52.122;5.422;2024-03-25T03:51:08;100779.28;;;3.73;90.07
80186;BME280;69904;52.122;5.422;2024-03-25T03:53:34;100778.59;;;3.71;90.00
80186;BME280;69904;52.122;5.422;2024-03-25T03:56:01;100775.22;;;3.69;90.05
80186;BME280;69904;52.122;5.422;2024-03-25T03:58:27;100771.91;;;3.67;89.93
80186;BME280;69904;52.122;5.422;2024-03-25T04:00:53;100769.69;;;3.62;89.86
80186;BME280;69904;52.122;5.422;2024-03-25T04:03:19;100753.81;;;3.61;89.96
80186;BME280;69904;52.122;5.422;2024-03-25T04:05:45;100760.16;;;3.60;90.18
80186;BME280;69904;52.122;5.422;2024-03-25T04:08:10;100757.81;;;3.57;89.93
80186;BME280;69904;52.122;5.422;2024-03-25T04:10:36;100757.94;;;3.55;90.19
80186;BME280;69904;52.122;5.422;2024-03-25T04:13:06;100763.91;;;3.49;90.30
80186;BME280;69904;52.122;5.422;2024-03-25T04:15:35;100759.72;;;3.47;90.34
80186;BME280;69904;52.122;5.422;2024-03-25T04:18:01;100767.72;;;3.47;90.55
80186;BME280;69904;52.122;5.422;2024-03-25T04:20:27;100764.22;;;3.46;90.53
80186;BME280;69904;52.122;5.422;2024-03-25T04:22:56;100776.03;;;3.44;90.53
80186;BME280;69904;52.122;5.422;2024-03-25T04:25:21;100782.53;;;3.41;90.50
80186;BME280;69904;52.122;5.422;2024-03-25T04:27:47;100772.84;;;3.40;90.56
80186;BME280;69904;52.122;5.422;2024-03-25T04:30:13;100773.97;;;3.37;90.44
80186;BME280;69904;52.122;5.422;2024-03-25T04:32:40;100768.09;;;3.34;90.43
80186;BME280;69904;52.122;5.422;2024-03-25T04:35:06;100765.06;;;3.29;90.67
80186;BME280;69904;52.122;5.422;2024-03-25T04:37:33;100766.56;;;3.31;90.80
80186;BME280;69904;52.122;5.422;2024-03-25T04:39:59;100766.75;;;3.30;90.78
80186;BME280;69904;52.122;5.422;2024-03-25T04:42:24;100765.19;;;3.27;90.75
80186;BME280;69904;52.122;5.422;2024-03-25T04:44:50;100768.72;;;3.28;90.94
80186;BME280;69904;52.122;5.422;2024-03-25T04:47:19;100774.03;;;3.28;91.01
80186;BME280;69904;52.122;5.422;2024-03-25T04:49:44;100768.00;;;3.26;90.83
80186;BME280;69904;52.122;5.422;2024-03-25T04:52:11;100774.38;;;3.25;90.80
80186;BME280;69904;52.122;5.422;2024-03-25T04:54:38;100775.50;;;3.22;90.62
80186;BME280;69904;52.122;5.422;2024-03-25T04:57:04;100766.50;;;3.23;90.59
80186;BME280;69904;52.122;5.422;2024-03-25T04:59:31;100768.34;;;3.23;90.48
80186;BME280;69904;52.122;5.422;2024-03-25T05:01:57;100769.50;;;3.20;90.57
80186;BME280;69904;52.122;5.422;2024-03-25T05:04:23;100775.94;;;3.18;90.22
80186;BME280;69904;52.122;5.422;2024-03-25T05:06:50;100768.94;;;3.17;90.39
80186;BME280;69904;52.122;5.422;2024-03-25T05:09:15;100778.75;;;3.16;90.46
80186;BME280;69904;52.122;5.422;2024-03-25T05:11:42;100780.91;;;3.13;90.28
80186;BME280;69904;52.122;5.422;2024-03-25T05:14:07;100778.38;;;3.11;90.19
80186;BME280;69904;52.122;5.422;2024-03-25T05:16:33;100777.72;;;3.09;90.14
80186;BME280;69904;52.122;5.422;2024-03-25T05:18:58;100782.19;;;3.09;90.04
80186;BME280;69904;52.122;5.422;2024-03-25T05:21:24;100786.84;;;3.07;90.00
80186;BME280;69904;52.122;5.422;2024-03-25T05:23:49;100791.47;;;3.05;89.99
80186;BME280;69904;52.122;5.422;2024-03-25T05:26:14;100792.47;;;3.04;90.20
80186;BME280;69904;52.122;5.422;2024-03-25T05:28:40;100796.97;;;3.03;90.31
80186;BME280;69904;52.122;5.422;2024-03-25T05:31:07;100804.13;;;3.03;90.34
80186;BME280;69904;52.122;5.422;2024-03-25T05:33:33;100800.63;;;3.02;90.75
80186;BME280;69904;52.122;5.422;2024-03-25T05:35:59;100803.16;;;3.04;90.71
80186;BME280;69904;52.122;5.422;2024-03-25T05:38:25;100801.16;;;3.06;90.77
80186;BME280;69904;52.122;5.422;2024-03-25T05:40:50;100802.31;;;3.03;90.71
80186;BME280;69904;52.122;5.422;2024-03-25T05:43:16;100803.28;;;3.02;90.90
80186;BME280;69904;52.122;5.422;2024-03-25T05:45:50;100800.75;;;3.01;90.72
80186;BME280;69904;52.122;5.422;2024-03-25T05:48:16;100790.09;;;3.01;90.85
80186;BME280;69904;52.122;5.422;2024-03-25T05:50:41;100790.09;;;3.01;90.82
80186;BME280;69904;52.122;5.422;2024-03-25T05:53:07;100789.13;;;3.02;90.95
80186;BME280;69904;52.122;5.422;2024-03-25T05:55:33;100795.59;;;2.99;90.92
80186;BME280;69904;52.122;5.422;2024-03-25T05:57:59;100791.63;;;3.03;91.14
80186;BME280;69904;52.122;5.422;2024-03-25T06:00:24;100795.28;;;3.02;91.23
80186;BME280;69904;52.122;5.422;2024-03-25T06:02:51;100798.94;;;3.01;90.97
80186;BME280;69904;52.122;5.422;2024-03-25T06:05:19;100806.94;;;3.01;91.30
80186;BME280;69904;52.122;5.422;2024-03-25T06:07:44;100789.13;;;3.02;91.27
80186;BME280;69904;52.122;5.422;2024-03-25T06:10:10;100796.00;;;3.04;91.08
80186;BME280;69904;52.122;5.422;2024-03-25T06:12:35;100790.34;;;3.07;91.37
80186;BME280;69904;52.122;5.422;2024-03-25T06:15:01;100791.88;;;3.10;91.46
80186;BME280;69904;52.122;5.422;2024-03-25T06:17:26;100788.19;;;3.11;91.46
80186;BME280;69904;52.122;5.422;2024-03-25T06:19:52;100787.91;;;3.14;91.56
80186;BME280;69904;52.122;5.422;2024-03-25T06:22:17;100793.06;;;3.15;91.31
80186;BME280;69904;52.122;5.422;2024-03-25T06:24:43;100789.81;;;3.21;91.85
80186;BME280;69904;52.122;5.422;2024-03-25T06:27:09;100785.88;;;3.25;91.92
80186;BME280;69904;52.122;5.422;2024-03-25T06:29:35;100783.72;;;3.29;91.81
80186;BME280;69904;52.122;5.422;2024-03-25T06:32:01;100782.56;;;3.31;91.80
80186;BME280;69904;52.122;5.422;2024-03-25T06:34:45;100775.97;;;3.35;91.78
80186;BME280;69904;52.122;5.422;2024-03-25T06:37:10;100775.19;;;3.43;91.66
80186;BME280;69904;52.122;5.422;2024-03-25T06:39:36;100774.56;;;3.49;91.67
80186;BME280;69904;52.122;5.422;2024-03-25T06:42:02;100771.28;;;3.55;91.68
80186;BME280;69904;52.122;5.422;2024-03-25T06:44:27;100786.31;;;3.56;91.44
80186;BME280;69904;52.122;5.422;2024-03-25T06:46:53;100774.34;;;3.60;91.79
80186;BME280;69904;52.122;5.422;2024-03-25T06:49:18;100782.03;;;3.63;91.64
80186;BME280;69904;52.122;5.422;2024-03-25T06:51:44;100783.41;;;3.67;91.69
80186;BME280;69904;52.122;5.422;2024-03-25T06:54:09;100782.94;;;3.72;91.90
80186;BME280;69904;52.122;5.422;2024-03-25T06:56:35;100780.94;;;3.74;91.87
80186;BME280;69904;52.122;5.422;2024-03-25T06:59:00;100780.50;;;3.78;91.77
80186;BME280;69904;52.122;5.422;2024-03-25T07:01:26;100779.03;;;3.84;91.91
80186;BME280;69904;52.122;5.422;2024-03-25T07:03:51;100783.72;;;3.90;92.23
80186;BME280;69904;52.122;5.422;2024-03-25T07:06:19;100777.09;;;3.94;92.28
80186;BME280;69904;52.122;5.422;2024-03-25T07:08:44;100775.78;;;3.98;92.30
80186;BME280;69904;52.122;5.422;2024-03-25T07:11:10;100786.84;;;4.03;92.17
80186;BME280;69904;52.122;5.422;2024-03-25T07:13:35;100782.00;;;4.07;92.32
80186;BME280;69904;52.122;5.422;2024-03-25T07:16:01;100781.53;;;4.11;92.54
80186;BME280;69904;52.122;5.422;2024-03-25T07:18:26;100782.06;;;4.15;92.59
80186;BME280;69904;52.122;5.422;2024-03-25T07:20:52;100786.63;;;4.22;92.54
80186;BME280;69904;52.122;5.422;2024-03-25T07:23:17;100780.66;;;4.29;92.78
80186;BME280;69904;52.122;5.422;2024-03-25T07:25:43;100778.88;;;4.37;92.88
80186;BME280;69904;52.122;5.422;2024-03-25T07:28:09;100781.41;;;4.47;92.84
80186;BME280;69904;52.122;5.422;2024-03-25T07:30:34;100782.63;;;4.52;93.00
80186;BME280;69904;52.122;5.422;2024-03-25T07:33:00;100779.31;;;4.58;92.90
80186;BME280;69904;52.122;5.422;2024-03-25T07:35:26;100778.47;;;4.66;93.07
80186;BME280;69904;52.122;5.422;2024-03-25T07:37:52;100783.69;;;4.76;92.98
80186;BME280;69904;52.122;5.422;2024-03-25T07:40:18;100786.56;;;4.82;92.91
80186;BME280;69904;52.122;5.422;2024-03-25T07:42:44;100780.09;;;4.93;92.79
80186;BME280;69904;52.122;5.422;2024-03-25T07:45:10;100787.31;;;5.00;92.92
80186;BME280;69904;52.122;5.422;2024-03-25T07:47:36;100790.19;;;5.07;92.72
80186;BME280;69904;52.122;5.422;2024-03-25T07:50:01;100788.34;;;5.16;92.67
80186;BME280;69904;52.122;5.422;2024-03-25T07:52:27;100786.50;;;5.24;92.60
80186;BME280;69904;52.122;5.422;2024-03-25T07:54:54;100786.03;;;5.29;92.36
80186;BME280;69904;52.122;5.422;2024-03-25T07:57:19;100790.06;;;5.33;92.06
80186;BME280;69904;52.122;5.422;2024-03-25T07:59:45;100787.56;;;5.39;92.29
80186;BME280;69904;52.122;5.422;2024-03-25T08:02:11;100783.53;;;5.43;92.04
80186;BME280;69904;52.122;5.422;2024-03-25T08:04:36;100786.22;;;5.51;92.23
80186;BME280;69904;52.122;5.422;2024-03-25T08:07:02;100781.72;;;5.60;91.92
80186;BME280;69904;52.122;5.422;2024-03-25T08:09:28;100788.06;;;5.67;91.76
80186;BME280;69904;52.122;5.422;2024-03-25T08:11:54;100787.06;;;5.76;91.31
80186;BME280;69904;52.122;5.422;2024-03-25T08:14:19;100787.91;;;5.85;91.04
80186;BME280;69904;52.122;5.422;2024-03-25T08:16:45;100794.47;;;5.90;90.45
80186;BME280;69904;52.122;5.422;2024-03-25T08:19:10;100803.66;;;5.96;89.98
80186;BME280;69904;52.122;5.422;2024-03-25T08:21:36;100799.16;;;5.97;89.76
80186;BME280;69904;52.122;5.422;2024-03-25T08:24:01;100801.31;;;6.01;89.33
80186;BME280;69904;52.122;5.422;2024-03-25T08:26:27;100804.66;;;6.11;89.06
80186;BME280;69904;52.122;5.422;2024-03-25T08:28:52;100808.13;;;6.20;88.56
80186;BME280;69904;52.122;5.422;2024-03-25T08:31:18;100798.25;;;6.28;88.37
80186;BME280;69904;52.122;5.422;2024-03-25T08:33:43;100792.03;;;6.36;87.44
80186;BME280;69904;52.122;5.422;2024-03-25T08:36:09;100789.34;;;6.44;86.82
80186;BME280;69904;52.122;5.422;2024-03-25T08:38:35;100801.69;;;6.53;85.84
80186;BME280;69904;52.122;5.422;2024-03-25T08:41:00;100801.69;;;6.61;86.16
80186;BME280;69904;52.122;5.422;2024-03-25T08:43:26;100797.78;;;6.72;85.53
80186;BME280;69904;52.122;5.422;2024-03-25T08:45:51;100798.56;;;6.89;85.61
80186;BME280;69904;52.122;5.422;2024-03-25T08:48:17;100793.50;;;6.94;85.04
80186;BME280;69904;52.122;5.422;2024-03-25T08:50:42;100796.13;;;7.02;84.09
80186;BME280;69904;52.122;5.422;2024-03-25T08:53:08;100788.69;;;7.12;84.28
80186;BME280;69904;52.122;5.422;2024-03-25T08:55:34;100790.69;;;7.18;83.92
80186;BME280;69904;52.122;5.422;2024-03-25T08:57:59;100797.19;;;7.24;83.97
80186;BME280;69904;52.122;5.422;2024-03-25T09:00:25;100791.81;;;7.24;82.76
80186;BME280;69904;52.122;5.422;2024-03-25T09:02:53;100792.28;;;7.27;81.95
80186;BME280;69904;52.122;5.422;2024-03-25T09:05:18;100781.56;;;7.27;81.57
80186;BME280;69904;52.122;5.422;2024-03-25T09:07:51;100783.38;;;7.35;80.62
80186;BME280;69904;52.122;5.422;2024-03-25T09:10:18;100774.91;;;7.46;80.92
80186;BME280;69904;52.122;5.422;2024-03-25T09:13:02;100789.28;;;7.30;80.40
80186;BME280;69904;52.122;5.422;2024-03-25T09:15:29;100780.22;;;7.31;80.39
80186;BME280;69904;52.122;5.422;2024-03-25T09:17:54;100781.16;;;7.38;79.94
80186;BME280;69904;52.122;5.422;2024-03-25T09:20:20;100771.53;;;7.44;79.83
80186;BME280;69904;52.122;5.422;2024-03-25T09:22:46;100781.97;;;7.39;79.40
80186;BME280;69904;52.122;5.422;2024-03-25T09:25:14;100780.59;;;7.43;79.19
80186;BME280;69904;52.122;5.422;2024-03-25T09:27:40;100785.88;;;7.36;78.74
80186;BME280;69904;52.122;5.422;2024-03-25T09:30:06;100779.84;;;7.57;78.57
80186;BME280;69904;52.122;5.422;2024-03-25T09:32:34;100776.13;;;7.81;78.50
80186;BME280;69904;52.122;5.422;2024-03-25T09:35:00;100773.69;;;7.71;78.29
80186;BME280;69904;52.122;5.422;2024-03-25T09:37:26;100777.22;;;7.72;78.68
80186;BME280;69904;52.122;5.422;2024-03-25T09:39:52;100765.66;;;7.86;78.33
80186;BME280;69904;52.122;5.422;2024-03-25T09:45:10;100767.44;;;8.45;77.58
80186;BME280;69904;52.122;5.422;2024-03-25T09:47:38;100757.44;;;8.54;76.70
80186;BME280;69904;52.122;5.422;2024-03-25T09:50:06;100761.69;;;8.63;76.24
80186;BME280;69904;52.122;5.422;2024-03-25T09:52:33;100765.84;;;8.80;76.16
80186;BME280;69904;52.122;5.422;2024-03-25T09:54:59;100760.25;;;8.97;76.78
80186;BME280;69904;52.122;5.422;2024-03-25T09:57:25;100765.53;;;9.26;76.01
80186;BME280;69904;52.122;5.422;2024-03-25T09:59:51;100762.91;;;9.33;75.20
80186;BME280;69904;52.122;5.422;2024-03-25T10:02:17;100755.69;;;9.33;75.47
80186;BME280;69904;52.122;5.422;2024-03-25T10:04:45;100743.03;;;9.55;75.20
80186;BME280;69904;52.122;5.422;2024-03-25T10:07:21;100740.25;;;9.69;74.29
80186;BME280;69904;52.122;5.422;2024-03-25T10:09:47;100730.50;;;9.68;73.05
80186;BME280;69904;52.122;5.422;2024-03-25T10:12:13;100724.63;;;9.58;73.65
80186;BME280;69904;52.122;5.422;2024-03-25T10:14:40;100723.94;;;9.50;73.31
80186;BME280;69904;52.122;5.422;2024-03-25T10:17:05;100726.16;;;9.46;73.16
80186;BME280;69904;52.122;5.422;2024-03-25T10:19:31;100737.59;;;9.27;72.61
80186;BME280;69904;52.122;5.422;2024-03-25T10:22:07;100724.31;;;9.25;73.04
80186;BME280;69904;52.122;5.422;2024-03-25T10:24:40;100728.41;;;9.21;72.68
80186;BME280;69904;52.122;5.422;2024-03-25T10:27:10;100727.97;;;9.18;72.59
80186;BME280;69904;52.122;5.422;2024-03-25T10:29:37;100715.00;;;9.07;72.17
80186;BME280;69904;52.122;5.422;2024-03-25T10:32:03;100712.44;;;9.20;72.20
80186;BME280;69904;52.122;5.422;2024-03-25T10:34:30;100709.72;;;9.35;72.10
80186;BME280;69904;52.122;5.422;2024-03-25T10:37:01;100706.84;;;9.64;71.73
80186;BME280;69904;52.122;5.422;2024-03-25T10:39:31;100704.81;;;9.66;70.01
80186;BME280;69904;52.122;5.422;2024-03-25T10:41:58;100708.81;;;9.77;70.76
80186;BME280;69904;52.122;5.422;2024-03-25T10:44:26;100702.31;;;9.92;71.05
80186;BME280;69904;52.122;5.422;2024-03-25T10:47:00;100697.69;;;9.86;70.51
80186;BME280;69904;52.122;5.422;2024-03-25T10:49:48;100697.16;;;9.97;70.27
80186;BME280;69904;52.122;5.422;2024-03-25T10:52:15;100695.03;;;10.21;69.51
80186;BME280;69904;52.122;5.422;2024-03-25T10:54:49;100698.06;;;10.11;68.12
80186;BME280;69904;52.122;5.422;2024-03-25T10:57:16;100688.91;;;10.05;67.54
80186;BME280;69904;52.122;5.422;2024-03-25T10:59:43;100687.91;;;10.13;67.60
80186;BME280;69904;52.122;5.422;2024-03-25T11:02:09;100678.81;;;10.55;68.30
80186;BME280;69904;52.122;5.422;2024-03-25T11:04:35;100672.13;;;10.98;68.55
80186;BME280;69904;52.122;5.422;2024-03-25T11:09:34;100674.75;;;10.85;65.29
80186;BME280;69904;52.122;5.422;2024-03-25T11:11:59;100670.63;;;10.96;65.70
80186;BME280;69904;52.122;5.422;2024-03-25T11:14:26;100677.53;;;11.12;65.35
80186;BME280;69904;52.122;5.422;2024-03-25T11:16:55;100672.97;;;11.38;64.85
80186;BME280;69904;52.122;5.422;2024-03-25T11:19:25;100669.22;;;11.07;62.83
80186;BME280;69904;52.122;5.422;2024-03-25T11:21:51;100663.63;;;11.15;63.00
80186;BME280;69904;52.122;5.422;2024-03-25T11:24:27;100658.59;;;10.92;62.33
80186;BME280;69904;52.122;5.422;2024-03-25T11:26:53;100659.69;;;11.24;62.61
80186;BME280;69904;52.122;5.422;2024-03-25T11:29:19;100652.00;;;11.67;61.90
80186;BME280;69904;52.122;5.422;2024-03-25T11:31:44;100652.19;;;12.05;62.30
80186;BME280;69904;52.122;5.422;2024-03-25T11:34:11;100651.63;;;12.41;61.54
80186;BME280;69904;52.122;5.422;2024-03-25T11:36:36;100658.22;;;12.64;61.92
80186;BME280;69904;52.122;5.422;2024-03-25T11:39:04;100651.69;;;12.72;60.20
80186;BME280;69904;52.122;5.422;2024-03-25T11:41:33;100645.28;;;12.15;60.85
80186;BME280;69904;52.122;5.422;2024-03-25T11:43:59;100642.00;;;11.87;60.38
80186;BME280;69904;52.122;5.422;2024-03-25T11:46:25;100644.06;;;12.11;59.67
80186;BME280;69904;52.122;5.422;2024-03-25T11:48:52;100633.88;;;12.58;59.92
80186;BME280;69904;52.122;5.422;2024-03-25T11:51:17;100643.25;;;12.93;58.89
80186;BME280;69904;52.122;5.422;2024-03-25T11:53:43;100622.53;;;13.12;58.63
80186;BME280;69904;52.122;5.422;2024-03-25T11:56:10;100620.06;;;13.35;58.79
80186;BME280;69904;52.122;5.422;2024-03-25T11:58:37;100614.19;;;13.63;58.80
80186;BME280;69904;52.122;5.422;2024-03-25T12:01:03;100612.78;;;13.79;57.14
80186;BME280;69904;52.122;5.422;2024-03-25T12:03:33;100612.88;;;13.23;56.73
80186;BME280;69904;52.122;5.422;2024-03-25T12:05:59;100620.88;;;12.73;57.88
80186;BME280;69904;52.122;5.422;2024-03-25T12:08:24;100603.41;;;13.00;58.00
80186;BME280;69904;52.122;5.422;2024-03-25T12:10:52;100595.72;;;13.54;57.16
80186;BME280;69904;52.122;5.422;2024-03-25T12:13:38;100591.31;;;13.96;57.25
80186;BME280;69904;52.122;5.422;2024-03-25T12:16:08;100590.00;;;14.34;57.09
80186;BME280;69904;52.122;5.422;2024-03-25T12:18:35;100582.03;;;14.58;56.02
80186;BME280;69904;52.122;5.422;2024-03-25T12:21:01;100586.81;;;14.86;55.20
80186;BME280;69904;52.122;5.422;2024-03-25T12:23:32;100577.88;;;14.97;54.17
80186;BME280;69904;52.122;5.422;2024-03-25T12:26:02;100569.72;;;14.97;53.14
80186;BME280;69904;52.122;5.422;2024-03-25T12:28:30;100563.44;;;14.96;53.56
80186;BME280;69904;52.122;5.422;2024-03-25T12:30:56;100566.28;;;15.54;54.07
80186;BME280;69904;52.122;5.422;2024-03-25T12:33:24;100566.00;;;15.44;51.58
80186;BME280;69904;52.122;5.422;2024-03-25T12:35:51;100564.38;;;14.79;50.90
80186;BME280;69904;52.122;5.422;2024-03-25T12:38:28;100569.38;;;14.93;50.20
80186;BME280;69904;52.122;5.422;2024-03-25T12:41:08;100562.59;;;14.72;49.23
80186;BME280;69904;52.122;5.422;2024-03-25T12:43:36;100557.19;;;14.54;48.70
80186;BME280;69904;52.122;5.422;2024-03-25T12:46:02;100569.22;;;14.47;48.91
80186;BME280;69904;52.122;5.422;2024-03-25T12:48:30;100552.59;;;14.85;49.76
80186;BME280;69904;52.122;5.422;2024-03-25T12:50:56;100557.94;;;15.14;48.51
80186;BME280;69904;52.122;5.422;2024-03-25T12:53:22;100550.16;;;15.41;48.94
80186;BME280;69904;52.122;5.422;2024-03-25T12:55:47;100548.06;;;15.55;48.84
80186;BME280;69904;52.122;5.422;2024-03-25T12:58:13;100548.41;;;15.47;47.97
80186;BME280;69904;52.122;5.422;2024-03-25T13:00:39;100538.81;;;15.91;48.99